sensor_id;sensor_type;location;lat;lon;timestamp;P1;durP1;ratioP1;P2;durP2;ratioP2
26824;SDS011;14402;48.178;11.566;2024-02-16T00:17:24;5.6;;;5.0;;
26824;SDS011;14402;48.178;11.566;2024-02-16T00:17:52;5.6;;;5.0;;
26824;SDS011;14402;48.178;11.566;2024-02-16T00:18:23;5.4;;;4.9;;
26824;SDS011;14402;48.178;11.566;2024-02-16T00:18:53;5.3;;;4.8;;
26824;SDS011;14402;48.178;11.566;2024-02-16T00:19:23;5.3;;;4.8;;
26824;SDS011;14402;48.178;11.566;2024-02-16T00:19:53;5.3;;;4.8;;
26824;SDS011;14402;48.178;11.566;2024-02-16T00:20:23;5.9;;;4.7;;
26824;SDS011;14402;48.178;11.566;2024-02-16T00:20:53;6.4;;;4.6;;
26824;SDS011;14402;48.178;11.566;2024-02-16T00:21:23;6.4;;;4.6;;
26824;SDS011;14402;48.178;11.566;2024-02-16T00:21:53;6.4;;;4.6;;
26824;SDS011;14402;48.178;11.566;2024-02-16T00:22:23;6.0;;;4.5;;
26824;SDS011;14402;48.178;11.566;2024-02-16T00:22:53;5.6;;;4.4;;
26824;SDS011;14402;48.178;11.566;2024-02-16T00:23:23;5.6;;;4.4;;
26824;SDS011;14402;48.178;11.566;2024-02-16T00:23:53;5.6;;;4.4;;
26824;SDS011;14402;48.178;11.566;2024-02-16T00:24:23;6.1;;;4.4;;
26824;SDS011;14402;48.178;11.566;2024-02-16T00:24:53;6.7;;;4.5;;
26824;SDS011;14402;48.178;11.566;2024-02-16T00:25:23;6.7;;;4.5;;
26824;SDS011;14402;48.178;11.566;2024-02-16T00:25:53;6.7;;;4.5;;
26824;SDS011;14402;48.178;11.566;2024-02-16T00:26:23;6.6;;;4.4;;
26824;SDS011;14402;48.178;11.566;2024-02-16T00:26:53;6.5;;;4.3;;
26824;SDS011;14402;48.178;11.566;2024-02-16T00:27:24;6.5;;;4.3;;
26824;SDS011;14402;48.178;11.566;2024-02-16T00:27:54;6.5;;;4.3;;
26824;SDS011;14402;48.178;11.566;2024-02-16T00:28:24;6.8;;;4.4;;
26824;SDS011;14402;48.178;11.566;2024-02-16T00:28:54;7.1;;;4.5;;
26824;SDS011;14402;48.178;11.566;2024-02-16T00:29:24;7.1;;;4.5;;
26824;SDS011;14402;48.178;11.566;2024-02-16T00:29:54;7.1;;;4.5;;
26824;SDS011;14402;48.178;11.566;2024-02-16T00:30:24;6.0;;;4.2;;
26824;SDS011;14402;48.178;11.566;2024-02-16T00:30:54;4.9;;;3.9;;
26824;SDS011;14402;48.178;11.566;2024-02-16T00:31:24;4.9;;;3.9;;
26824;SDS011;14402;48.178;11.566;2024-02-16T00:31:54;4.9;;;3.9;;
26824;SDS011;14402;48.178;11.566;2024-02-16T00:32:24;5.6;;;4.1;;
26824;SDS011;14402;48.178;11.566;2024-02-16T00:32:54;6.3;;;4.3;;
26824;SDS011;14402;48.178;11.566;2024-02-16T00:33:24;6.3;;;4.3;;
26824;SDS011;14402;48.178;11.566;2024-02-16T00:33:54;6.3;;;4.3;;
26824;SDS011;14402;48.178;11.566;2024-02-16T00:34:24;6.8;;;4.3;;
26824;SDS011;14402;48.178;11.566;2024-02-16T00:34:55;7.2;;;4.3;;
26824;SDS011;14402;48.178;11.566;2024-02-16T00:35:25;7.2;;;4.3;;
26824;SDS011;14402;48.178;11.566;2024-02-16T00:35:55;7.2;;;4.3;;
26824;SDS011;14402;48.178;11.566;2024-02-16T00:36:25;6.6;;;4.2;;
26824;SDS011;14402;48.178;11.566;2024-02-16T00:36:55;6.0;;;4.2;;
26824;SDS011;14402;48.178;11.566;2024-02-16T00:37:25;6.0;;;4.2;;
26824;SDS011;14402;48.178;11.566;2024-02-16T00:37:55;6.0;;;4.2;;
26824;SDS011;14402;48.178;11.566;2024-02-16T00:38:25;6.4;;;4.4;;
26824;SDS011;14402;48.178;11.566;2024-02-16T00:38:55;6.8;;;4.7;;
26824;SDS011;14402;48.178;11.566;2024-02-16T00:39:25;6.8;;;4.7;;
26824;SDS011;14402;48.178;11.566;2024-02-16T00:39:55;6.8;;;4.7;;
26824;SDS011;14402;48.178;11.566;2024-02-16T00:40:25;6.1;;;4.6;;
26824;SDS011;14402;48.178;11.566;2024-02-16T00:40:55;5.4;;;4.4;;
26824;SDS011;14402;48.178;11.566;2024-02-16T00:41:25;5.4;;;4.4;;
26824;SDS011;14402;48.178;11.566;2024-02-16T00:41:55;5.4;;;4.4;;
26824;SDS011;14402;48.178;11.566;2024-02-16T00:42:25;5.3;;;4.6;;
26824;SDS011;14402;48.178;11.566;2024-02-16T00:42:56;5.2;;;4.7;;
26824;SDS011;14402;48.178;11.566;2024-02-16T00:43:25;5.2;;;4.7;;
26824;SDS011;14402;48.178;11.566;2024-02-16T00:43:56;5.2;;;4.7;;
26824;SDS011;14402;48.178;11.566;2024-02-16T00:44:26;5.4;;;4.6;;
26824;SDS011;14402;48.178;11.566;2024-02-16T00:44:56;5.6;;;4.6;;
26824;SDS011;14402;48.178;11.566;2024-02-16T00:45:26;5.6;;;4.6;;
26824;SDS011;14402;48.178;11.566;2024-02-16T00:45:56;5.6;;;4.6;;
26824;SDS011;14402;48.178;11.566;2024-02-16T00:46:26;6.0;;;4.5;;
26824;SDS011;14402;48.178;11.566;2024-02-16T00:46:56;6.4;;;4.4;;
26824;SDS011;14402;48.178;11.566;2024-02-16T00:47:26;6.4;;;4.4;;
26824;SDS011;14402;48.178;11.566;2024-02-16T00:47:56;6.4;;;4.4;;
26824;SDS011;14402;48.178;11.566;2024-02-16T00:48:26;5.9;;;4.2;;
26824;SDS011;14402;48.178;11.566;2024-02-16T00:48:56;5.4;;;3.9;;
26824;SDS011;14402;48.178;11.566;2024-02-16T00:49:26;5.4;;;3.9;;
26824;SDS011;14402;48.178;11.566;2024-02-16T00:49:56;5.4;;;3.9;;
26824;SDS011;14402;48.178;11.566;2024-02-16T00:50:26;5.4;;;4.0;;
26824;SDS011;14402;48.178;11.566;2024-02-16T00:50:56;5.4;;;4.0;;
26824;SDS011;14402;48.178;11.566;2024-02-16T00:51:26;5.4;;;4.0;;
26824;SDS011;14402;48.178;11.566;2024-02-16T00:51:56;5.4;;;4.0;;
26824;SDS011;14402;48.178;11.566;2024-02-16T00:52:26;5.8;;;3.7;;
26824;SDS011;14402;48.178;11.566;2024-02-16T00:52:57;6.2;;;3.4;;
26824;SDS011;14402;48.178;11.566;2024-02-16T00:53:27;6.2;;;3.4;;
26824;SDS011;14402;48.178;11.566;2024-02-16T00:53:57;6.2;;;3.4;;
26824;SDS011;14402;48.178;11.566;2024-02-16T00:54:27;6.1;;;3.5;;
26824;SDS011;14402;48.178;11.566;2024-02-16T00:54:57;6.0;;;3.6;;
26824;SDS011;14402;48.178;11.566;2024-02-16T00:55:27;6.0;;;3.6;;
26824;SDS011;14402;48.178;11.566;2024-02-16T00:55:57;6.0;;;3.6;;
26824;SDS011;14402;48.178;11.566;2024-02-16T00:56:27;5.2;;;3.6;;
26824;SDS011;14402;48.178;11.566;2024-02-16T00:56:57;4.4;;;3.6;;
26824;SDS011;14402;48.178;11.566;2024-02-16T00:57:27;4.4;;;3.6;;
26824;SDS011;14402;48.178;11.566;2024-02-16T00:57:57;4.4;;;3.6;;
26824;SDS011;14402;48.178;11.566;2024-02-16T00:58:27;4.9;;;3.5;;
26824;SDS011;14402;48.178;11.566;2024-02-16T00:58:57;5.4;;;3.5;;
26824;SDS011;14402;48.178;11.566;2024-02-16T00:59:27;5.4;;;3.5;;
26824;SDS011;14402;48.178;11.566;2024-02-16T00:59:57;5.4;;;3.5;;
26824;SDS011;14402;48.178;11.566;2024-02-16T01:00:27;4.9;;;3.4;;
26824;SDS011;14402;48.178;11.566;2024-02-16T01:00:57;4.3;;;3.3;;
26824;SDS011;14402;48.178;11.566;2024-02-16T01:01:27;4.3;;;3.3;;
26824;SDS011;14402;48.178;11.566;2024-02-16T01:01:58;4.3;;;3.3;;
26824;SDS011;14402;48.178;11.566;2024-02-16T01:02:28;3.9;;;3.2;;
26824;SDS011;14402;48.178;11.566;2024-02-16T01:02:58;3.5;;;3.1;;
26824;SDS011;14402;48.178;11.566;2024-02-16T01:03:28;3.5;;;3.1;;
26824;SDS011;14402;48.178;11.566;2024-02-16T01:03:58;3.5;;;3.1;;
26824;SDS011;14402;48.178;11.566;2024-02-16T01:04:28;3.7;;;3.2;;
26824;SDS011;14402;48.178;11.566;2024-02-16T01:04:58;3.9;;;3.3;;
26824;SDS011;14402;48.178;11.566;2024-02-16T01:05:28;3.9;;;3.3;;
26824;SDS011;14402;48.178;11.566;2024-02-16T01:05:58;3.9;;;3.3;;
26824;SDS011;14402;48.178;11.566;2024-02-16T01:06:28;3.8;;;3.3;;
26824;SDS011;14402;48.178;11.566;2024-02-16T01:06:58;3.6;;;3.3;;
26824;SDS011;14402;48.178;11.566;2024-02-16T01:07:28;3.6;;;3.3;;
26824;SDS011;14402;48.178;11.566;2024-02-16T01:07:58;3.6;;;3.3;;
26824;SDS011;14402;48.178;11.566;2024-02-16T01:08:28;3.8;;;3.3;;
26824;SDS011;14402;48.178;11.566;2024-02-16T01:08:58;4.0;;;3.3;;
26824;SDS011;14402;48.178;11.566;2024-02-16T01:09:28;4.0;;;3.3;;
26824;SDS011;14402;48.178;11.566;2024-02-16T01:09:58;4.0;;;3.3;;
26824;SDS011;14402;48.178;11.566;2024-02-16T01:10:29;4.7;;;3.4;;
26824;SDS011;14402;48.178;11.566;2024-02-16T01:10:59;5.3;;;3.5;;
26824;SDS011;14402;48.178;11.566;2024-02-16T01:11:29;5.3;;;3.5;;
26824;SDS011;14402;48.178;11.566;2024-02-16T01:11:59;5.3;;;3.5;;
26824;SDS011;14402;48.178;11.566;2024-02-16T01:12:29;4.5;;;3.3;;
26824;SDS011;14402;48.178;11.566;2024-02-16T01:12:59;3.7;;;3.2;;
26824;SDS011;14402;48.178;11.566;2024-02-16T01:13:29;3.7;;;3.2;;
26824;SDS011;14402;48.178;11.566;2024-02-16T01:13:59;3.7;;;3.2;;
26824;SDS011;14402;48.178;11.566;2024-02-16T01:14:29;4.1;;;3.2;;
26824;SDS011;14402;48.178;11.566;2024-02-16T01:14:59;4.5;;;3.2;;
26824;SDS011;14402;48.178;11.566;2024-02-16T01:15:29;4.5;;;3.2;;
26824;SDS011;14402;48.178;11.566;2024-02-16T01:15:59;4.5;;;3.2;;
26824;SDS011;14402;48.178;11.566;2024-02-16T01:16:29;4.7;;;3.2;;
26824;SDS011;14402;48.178;11.566;2024-02-16T01:16:59;4.8;;;3.3;;
26824;SDS011;14402;48.178;11.566;2024-02-16T01:17:30;4.8;;;3.3;;
26824;SDS011;14402;48.178;11.566;2024-02-16T01:17:59;4.8;;;3.3;;
26824;SDS011;14402;48.178;11.566;2024-02-16T01:18:29;4.8;;;3.3;;
26824;SDS011;14402;48.178;11.566;2024-02-16T01:19:00;4.8;;;3.4;;
26824;SDS011;14402;48.178;11.566;2024-02-16T01:19:30;4.8;;;3.4;;
26824;SDS011;14402;48.178;11.566;2024-02-16T01:20:00;4.8;;;3.4;;
26824;SDS011;14402;48.178;11.566;2024-02-16T01:20:30;4.2;;;3.3;;
26824;SDS011;14402;48.178;11.566;2024-02-16T01:21:00;3.6;;;3.2;;
26824;SDS011;14402;48.178;11.566;2024-02-16T01:21:30;3.6;;;3.2;;
26824;SDS011;14402;48.178;11.566;2024-02-16T01:22:00;3.6;;;3.2;;
26824;SDS011;14402;48.178;11.566;2024-02-16T01:22:30;4.4;;;3.2;;
26824;SDS011;14402;48.178;11.566;2024-02-16T01:23:00;5.2;;;3.3;;
26824;SDS011;14402;48.178;11.566;2024-02-16T01:23:30;5.2;;;3.3;;
26824;SDS011;14402;48.178;11.566;2024-02-16T01:24:00;5.2;;;3.3;;
26824;SDS011;14402;48.178;11.566;2024-02-16T01:24:30;4.9;;;3.4;;
26824;SDS011;14402;48.178;11.566;2024-02-16T01:25:00;4.7;;;3.6;;
26824;SDS011;14402;48.178;11.566;2024-02-16T01:25:30;4.7;;;3.6;;
26824;SDS011;14402;48.178;11.566;2024-02-16T01:26:00;4.7;;;3.6;;
26824;SDS011;14402;48.178;11.566;2024-02-16T01:26:30;5.1;;;3.5;;
26824;SDS011;14402;48.178;11.566;2024-02-16T01:27:00;5.4;;;3.5;;
26824;SDS011;14402;48.178;11.566;2024-02-16T01:27:30;5.4;;;3.5;;
26824;SDS011;14402;48.178;11.566;2024-02-16T01:28:01;5.4;;;3.5;;
26824;SDS011;14402;48.178;11.566;2024-02-16T01:28:30;4.9;;;3.6;;
26824;SDS011;14402;48.178;11.566;2024-02-16T01:29:01;4.4;;;3.7;;
26824;SDS011;14402;48.178;11.566;2024-02-16T01:29:31;4.4;;;3.7;;
26824;SDS011;14402;48.178;11.566;2024-02-16T01:30:01;4.4;;;3.7;;
26824;SDS011;14402;48.178;11.566;2024-02-16T01:30:31;4.8;;;3.7;;
26824;SDS011;14402;48.178;11.566;2024-02-16T01:31:01;5.2;;;3.7;;
26824;SDS011;14402;48.178;11.566;2024-02-16T01:31:31;5.2;;;3.7;;
26824;SDS011;14402;48.178;11.566;2024-02-16T01:32:01;5.2;;;3.7;;
26824;SDS011;14402;48.178;11.566;2024-02-16T01:32:31;4.9;;;3.7;;
26824;SDS011;14402;48.178;11.566;2024-02-16T01:33:01;4.6;;;3.6;;
26824;SDS011;14402;48.178;11.566;2024-02-16T01:33:31;4.6;;;3.6;;
26824;SDS011;14402;48.178;11.566;2024-02-16T01:34:01;4.6;;;3.6;;
26824;SDS011;14402;48.178;11.566;2024-02-16T01:34:31;5.2;;;3.5;;
26824;SDS011;14402;48.178;11.566;2024-02-16T01:35:01;5.9;;;3.4;;
26824;SDS011;14402;48.178;11.566;2024-02-16T01:35:31;5.9;;;3.4;;
26824;SDS011;14402;48.178;11.566;2024-02-16T01:36:02;5.9;;;3.4;;
26824;SDS011;14402;48.178;11.566;2024-02-16T01:36:31;4.9;;;3.2;;
26824;SDS011;14402;48.178;11.566;2024-02-16T01:37:02;4.0;;;3.1;;
26824;SDS011;14402;48.178;11.566;2024-02-16T01:37:32;4.0;;;3.1;;
26824;SDS011;14402;48.178;11.566;2024-02-16T01:38:02;4.0;;;3.1;;
26824;SDS011;14402;48.178;11.566;2024-02-16T01:38:32;4.1;;;3.3;;
26824;SDS011;14402;48.178;11.566;2024-02-16T01:39:02;4.1;;;3.5;;
26824;SDS011;14402;48.178;11.566;2024-02-16T01:39:32;4.1;;;3.5;;
26824;SDS011;14402;48.178;11.566;2024-02-16T01:40:02;4.1;;;3.5;;
26824;SDS011;14402;48.178;11.566;2024-02-16T01:40:32;4.2;;;3.5;;
26824;SDS011;14402;48.178;11.566;2024-02-16T01:41:02;4.4;;;3.4;;
26824;SDS011;14402;48.178;11.566;2024-02-16T01:41:32;4.4;;;3.4;;
26824;SDS011;14402;48.178;11.566;2024-02-16T01:42:02;4.4;;;3.4;;
26824;SDS011;14402;48.178;11.566;2024-02-16T01:42:32;5.4;;;3.3;;
26824;SDS011;14402;48.178;11.566;2024-02-16T01:43:02;6.4;;;3.3;;
26824;SDS011;14402;48.178;11.566;2024-02-16T01:43:32;6.4;;;3.3;;
26824;SDS011;14402;48.178;11.566;2024-02-16T01:44:02;6.4;;;3.3;;
26824;SDS011;14402;48.178;11.566;2024-02-16T01:44:32;6.0;;;3.4;;
26824;SDS011;14402;48.178;11.566;2024-02-16T01:45:03;5.6;;;3.6;;
26824;SDS011;14402;48.178;11.566;2024-02-16T01:45:33;5.6;;;3.6;;
26824;SDS011;14402;48.178;11.566;2024-02-16T01:46:03;5.6;;;3.6;;
26824;SDS011;14402;48.178;11.566;2024-02-16T01:46:33;5.1;;;3.5;;
26824;SDS011;14402;48.178;11.566;2024-02-16T01:47:03;4.5;;;3.4;;
26824;SDS011;14402;48.178;11.566;2024-02-16T01:47:33;4.5;;;3.4;;
26824;SDS011;14402;48.178;11.566;2024-02-16T01:48:03;4.5;;;3.4;;
26824;SDS011;14402;48.178;11.566;2024-02-16T01:48:33;4.6;;;3.3;;
26824;SDS011;14402;48.178;11.566;2024-02-16T01:49:03;4.7;;;3.3;;
26824;SDS011;14402;48.178;11.566;2024-02-16T01:49:33;4.7;;;3.3;;
26824;SDS011;14402;48.178;11.566;2024-02-16T01:50:03;4.7;;;3.3;;
26824;SDS011;14402;48.178;11.566;2024-02-16T01:50:33;4.9;;;3.4;;
26824;SDS011;14402;48.178;11.566;2024-02-16T01:51:03;5.2;;;3.6;;
26824;SDS011;14402;48.178;11.566;2024-02-16T01:51:33;5.2;;;3.6;;
26824;SDS011;14402;48.178;11.566;2024-02-16T01:52:04;5.2;;;3.6;;
26824;SDS011;14402;48.178;11.566;2024-02-16T01:52:33;5.3;;;3.6;;
26824;SDS011;14402;48.178;11.566;2024-02-16T01:53:03;5.5;;;3.6;;
26824;SDS011;14402;48.178;11.566;2024-02-16T01:53:34;5.5;;;3.6;;
26824;SDS011;14402;48.178;11.566;2024-02-16T01:54:04;5.5;;;3.6;;
26824;SDS011;14402;48.178;11.566;2024-02-16T01:54:34;4.9;;;3.5;;
26824;SDS011;14402;48.178;11.566;2024-02-16T01:55:04;4.3;;;3.4;;
26824;SDS011;14402;48.178;11.566;2024-02-16T01:55:34;4.3;;;3.4;;
26824;SDS011;14402;48.178;11.566;2024-02-16T01:56:04;4.3;;;3.4;;
26824;SDS011;14402;48.178;11.566;2024-02-16T01:56:34;4.4;;;3.3;;
26824;SDS011;14402;48.178;11.566;2024-02-16T01:57:04;4.4;;;3.3;;
26824;SDS011;14402;48.178;11.566;2024-02-16T01:57:34;4.4;;;3.3;;
26824;SDS011;14402;48.178;11.566;2024-02-16T01:58:04;4.4;;;3.3;;
26824;SDS011;14402;48.178;11.566;2024-02-16T01:58:34;4.3;;;3.2;;
26824;SDS011;14402;48.178;11.566;2024-02-16T01:59:04;4.2;;;3.2;;
26824;SDS011;14402;48.178;11.566;2024-02-16T01:59:34;4.2;;;3.2;;
26824;SDS011;14402;48.178;11.566;2024-02-16T02:00:05;4.2;;;3.2;;
26824;SDS011;14402;48.178;11.566;2024-02-16T02:00:34;4.3;;;3.2;;
26824;SDS011;14402;48.178;11.566;2024-02-16T02:01:04;4.4;;;3.3;;
26824;SDS011;14402;48.178;11.566;2024-02-16T02:01:35;4.4;;;3.3;;
26824;SDS011;14402;48.178;11.566;2024-02-16T02:02:04;4.4;;;3.3;;
26824;SDS011;14402;48.178;11.566;2024-02-16T02:02:35;4.6;;;3.3;;
26824;SDS011;14402;48.178;11.566;2024-02-16T02:03:05;4.7;;;3.4;;
26824;SDS011;14402;48.178;11.566;2024-02-16T02:03:35;4.7;;;3.4;;
26824;SDS011;14402;48.178;11.566;2024-02-16T02:04:05;4.7;;;3.4;;
26824;SDS011;14402;48.178;11.566;2024-02-16T02:04:35;5.0;;;3.4;;
26824;SDS011;14402;48.178;11.566;2024-02-16T02:05:05;5.3;;;3.4;;
26824;SDS011;14402;48.178;11.566;2024-02-16T02:05:43;5.3;;;3.4;;
26824;SDS011;14402;48.178;11.566;2024-02-16T02:06:05;5.3;;;3.4;;
26824;SDS011;14402;48.178;11.566;2024-02-16T02:06:35;4.8;;;3.4;;
26824;SDS011;14402;48.178;11.566;2024-02-16T02:07:10;4.3;;;3.4;;
26824;SDS011;14402;48.178;11.566;2024-02-16T02:07:35;4.3;;;3.4;;
26824;SDS011;14402;48.178;11.566;2024-02-16T02:08:09;4.3;;;3.4;;
26824;SDS011;14402;48.178;11.566;2024-02-16T02:08:35;4.5;;;3.3;;
26824;SDS011;14402;48.178;11.566;2024-02-16T02:09:05;4.7;;;3.2;;
26824;SDS011;14402;48.178;11.566;2024-02-16T02:09:35;4.7;;;3.2;;
26824;SDS011;14402;48.178;11.566;2024-02-16T02:10:06;4.7;;;3.2;;
26824;SDS011;14402;48.178;11.566;2024-02-16T02:10:35;4.4;;;3.4;;
26824;SDS011;14402;48.178;11.566;2024-02-16T02:11:06;4.2;;;3.6;;
26824;SDS011;14402;48.178;11.566;2024-02-16T02:11:36;4.2;;;3.6;;
26824;SDS011;14402;48.178;11.566;2024-02-16T02:12:06;4.2;;;3.6;;
26824;SDS011;14402;48.178;11.566;2024-02-16T02:12:36;4.4;;;3.4;;
26824;SDS011;14402;48.178;11.566;2024-02-16T02:13:06;4.6;;;3.3;;
26824;SDS011;14402;48.178;11.566;2024-02-16T02:13:36;4.6;;;3.3;;
26824;SDS011;14402;48.178;11.566;2024-02-16T02:14:06;4.6;;;3.3;;
26824;SDS011;14402;48.178;11.566;2024-02-16T02:14:36;4.7;;;3.3;;
26824;SDS011;14402;48.178;11.566;2024-02-16T02:15:06;4.8;;;3.4;;
26824;SDS011;14402;48.178;11.566;2024-02-16T02:15:36;4.8;;;3.4;;
26824;SDS011;14402;48.178;11.566;2024-02-16T02:16:06;4.8;;;3.4;;
26824;SDS011;14402;48.178;11.566;2024-02-16T02:16:36;4.7;;;3.5;;
26824;SDS011;14402;48.178;11.566;2024-02-16T02:17:07;4.5;;;3.6;;
26824;SDS011;14402;48.178;11.566;2024-02-16T02:17:36;4.5;;;3.6;;
26824;SDS011;14402;48.178;11.566;2024-02-16T02:18:06;4.5;;;3.6;;
26824;SDS011;14402;48.178;11.566;2024-02-16T02:18:37;4.6;;;3.5;;
26824;SDS011;14402;48.178;11.566;2024-02-16T02:19:06;4.6;;;3.5;;
26824;SDS011;14402;48.178;11.566;2024-02-16T02:19:36;4.6;;;3.5;;
26824;SDS011;14402;48.178;11.566;2024-02-16T02:20:07;4.6;;;3.5;;
26824;SDS011;14402;48.178;11.566;2024-02-16T02:20:37;4.8;;;3.5;;
26824;SDS011;14402;48.178;11.566;2024-02-16T02:21:07;4.9;;;3.5;;
26824;SDS011;14402;48.178;11.566;2024-02-16T02:21:37;4.9;;;3.5;;
26824;SDS011;14402;48.178;11.566;2024-02-16T02:22:10;4.9;;;3.5;;
26824;SDS011;14402;48.178;11.566;2024-02-16T02:22:37;4.9;;;3.5;;
26824;SDS011;14402;48.178;11.566;2024-02-16T02:23:07;5.0;;;3.6;;
26824;SDS011;14402;48.178;11.566;2024-02-16T02:23:37;5.0;;;3.6;;
26824;SDS011;14402;48.178;11.566;2024-02-16T02:24:07;5.0;;;3.6;;
26824;SDS011;14402;48.178;11.566;2024-02-16T02:24:37;5.2;;;3.5;;
26824;SDS011;14402;48.178;11.566;2024-02-16T02:25:07;5.3;;;3.5;;
26824;SDS011;14402;48.178;11.566;2024-02-16T02:25:37;5.3;;;3.5;;
26824;SDS011;14402;48.178;11.566;2024-02-16T02:26:07;5.3;;;3.5;;
26824;SDS011;14402;48.178;11.566;2024-02-16T02:26:37;5.0;;;3.6;;
26824;SDS011;14402;48.178;11.566;2024-02-16T02:27:07;4.7;;;3.7;;
26824;SDS011;14402;48.178;11.566;2024-02-16T02:27:37;4.7;;;3.7;;
26824;SDS011;14402;48.178;11.566;2024-02-16T02:28:08;4.7;;;3.7;;
26824;SDS011;14402;48.178;11.566;2024-02-16T02:28:37;5.1;;;3.7;;
26824;SDS011;14402;48.178;11.566;2024-02-16T02:29:08;5.4;;;3.6;;
26824;SDS011;14402;48.178;11.566;2024-02-16T02:29:38;5.4;;;3.6;;
26824;SDS011;14402;48.178;11.566;2024-02-16T02:30:08;5.4;;;3.6;;
26824;SDS011;14402;48.178;11.566;2024-02-16T02:30:38;5.2;;;3.6;;
26824;SDS011;14402;48.178;11.566;2024-02-16T02:31:08;5.1;;;3.6;;
26824;SDS011;14402;48.178;11.566;2024-02-16T02:31:38;5.1;;;3.6;;
26824;SDS011;14402;48.178;11.566;2024-02-16T02:32:08;5.1;;;3.6;;
26824;SDS011;14402;48.178;11.566;2024-02-16T02:32:38;5.1;;;3.6;;
26824;SDS011;14402;48.178;11.566;2024-02-16T02:33:08;5.0;;;3.6;;
26824;SDS011;14402;48.178;11.566;2024-02-16T02:33:38;5.0;;;3.6;;
26824;SDS011;14402;48.178;11.566;2024-02-16T02:34:08;5.0;;;3.6;;
26824;SDS011;14402;48.178;11.566;2024-02-16T02:34:38;4.8;;;3.6;;
26824;SDS011;14402;48.178;11.566;2024-02-16T02:35:09;4.6;;;3.6;;
26824;SDS011;14402;48.178;11.566;2024-02-16T02:35:38;4.6;;;3.6;;
26824;SDS011;14402;48.178;11.566;2024-02-16T02:36:08;4.6;;;3.6;;
26824;SDS011;14402;48.178;11.566;2024-02-16T02:36:38;4.9;;;3.5;;
26824;SDS011;14402;48.178;11.566;2024-02-16T02:37:09;5.3;;;3.4;;
26824;SDS011;14402;48.178;11.566;2024-02-16T02:37:39;5.3;;;3.4;;
26824;SDS011;14402;48.178;11.566;2024-02-16T02:38:09;5.3;;;3.4;;
26824;SDS011;14402;48.178;11.566;2024-02-16T02:38:39;4.8;;;3.4;;
26824;SDS011;14402;48.178;11.566;2024-02-16T02:39:09;4.3;;;3.4;;
26824;SDS011;14402;48.178;11.566;2024-02-16T02:39:39;4.3;;;3.4;;
26824;SDS011;14402;48.178;11.566;2024-02-16T02:40:09;4.3;;;3.4;;
26824;SDS011;14402;48.178;11.566;2024-02-16T02:40:39;5.1;;;3.6;;
26824;SDS011;14402;48.178;11.566;2024-02-16T02:41:09;5.9;;;3.7;;
26824;SDS011;14402;48.178;11.566;2024-02-16T02:41:39;5.9;;;3.7;;
26824;SDS011;14402;48.178;11.566;2024-02-16T02:42:09;5.9;;;3.7;;
26824;SDS011;14402;48.178;11.566;2024-02-16T02:42:39;6.2;;;3.6;;
26824;SDS011;14402;48.178;11.566;2024-02-16T02:43:09;6.6;;;3.4;;
26824;SDS011;14402;48.178;11.566;2024-02-16T02:43:39;6.6;;;3.4;;
26824;SDS011;14402;48.178;11.566;2024-02-16T02:44:09;6.6;;;3.4;;
26824;SDS011;14402;48.178;11.566;2024-02-16T02:44:39;5.6;;;3.3;;
26824;SDS011;14402;48.178;11.566;2024-02-16T02:45:09;4.7;;;3.2;;
26824;SDS011;14402;48.178;11.566;2024-02-16T02:45:39;4.7;;;3.2;;
26824;SDS011;14402;48.178;11.566;2024-02-16T02:46:14;4.7;;;3.2;;
26824;SDS011;14402;48.178;11.566;2024-02-16T02:46:40;4.8;;;3.3;;
26824;SDS011;14402;48.178;11.566;2024-02-16T02:47:10;5.0;;;3.4;;
26824;SDS011;14402;48.178;11.566;2024-02-16T02:47:40;5.0;;;3.4;;
26824;SDS011;14402;48.178;11.566;2024-02-16T02:48:10;5.0;;;3.4;;
26824;SDS011;14402;48.178;11.566;2024-02-16T02:48:40;4.6;;;3.3;;
26824;SDS011;14402;48.178;11.566;2024-02-16T02:49:10;4.2;;;3.3;;
26824;SDS011;14402;48.178;11.566;2024-02-16T02:49:40;4.2;;;3.3;;
26824;SDS011;14402;48.178;11.566;2024-02-16T02:50:10;4.2;;;3.3;;
26824;SDS011;14402;48.178;11.566;2024-02-16T02:50:40;4.7;;;3.2;;
26824;SDS011;14402;48.178;11.566;2024-02-16T02:51:10;5.2;;;3.2;;
26824;SDS011;14402;48.178;11.566;2024-02-16T02:51:40;5.2;;;3.2;;
26824;SDS011;14402;48.178;11.566;2024-02-16T02:52:10;5.2;;;3.2;;
26824;SDS011;14402;48.178;11.566;2024-02-16T02:52:40;5.1;;;3.3;;
26824;SDS011;14402;48.178;11.566;2024-02-16T02:53:10;4.9;;;3.4;;
26824;SDS011;14402;48.178;11.566;2024-02-16T02:53:41;4.9;;;3.4;;
26824;SDS011;14402;48.178;11.566;2024-02-16T02:54:11;4.9;;;3.4;;
26824;SDS011;14402;48.178;11.566;2024-02-16T02:54:41;5.0;;;3.3;;
26824;SDS011;14402;48.178;11.566;2024-02-16T02:55:11;5.1;;;3.3;;
26824;SDS011;14402;48.178;11.566;2024-02-16T02:55:41;5.1;;;3.3;;
26824;SDS011;14402;48.178;11.566;2024-02-16T02:56:11;5.1;;;3.3;;
26824;SDS011;14402;48.178;11.566;2024-02-16T02:56:41;5.0;;;3.4;;
26824;SDS011;14402;48.178;11.566;2024-02-16T02:57:11;4.9;;;3.6;;
26824;SDS011;14402;48.178;11.566;2024-02-16T02:57:41;4.9;;;3.6;;
26824;SDS011;14402;48.178;11.566;2024-02-16T02:58:11;4.9;;;3.6;;
26824;SDS011;14402;48.178;11.566;2024-02-16T02:58:41;5.1;;;3.8;;
26824;SDS011;14402;48.178;11.566;2024-02-16T02:59:11;5.3;;;3.9;;
26824;SDS011;14402;48.178;11.566;2024-02-16T02:59:41;5.3;;;3.9;;
26824;SDS011;14402;48.178;11.566;2024-02-16T03:00:11;5.3;;;3.9;;
26824;SDS011;14402;48.178;11.566;2024-02-16T03:00:41;5.8;;;3.8;;
26824;SDS011;14402;48.178;11.566;2024-02-16T03:01:11;6.3;;;3.7;;
26824;SDS011;14402;48.178;11.566;2024-02-16T03:01:41;6.3;;;3.7;;
26824;SDS011;14402;48.178;11.566;2024-02-16T03:02:11;6.3;;;3.7;;
26824;SDS011;14402;48.178;11.566;2024-02-16T03:02:41;5.7;;;3.7;;
26824;SDS011;14402;48.178;11.566;2024-02-16T03:03:12;5.0;;;3.6;;
26824;SDS011;14402;48.178;11.566;2024-02-16T03:03:42;5.0;;;3.6;;
26824;SDS011;14402;48.178;11.566;2024-02-16T03:04:12;5.0;;;3.6;;
26824;SDS011;14402;48.178;11.566;2024-02-16T03:04:42;5.2;;;3.6;;
26824;SDS011;14402;48.178;11.566;2024-02-16T03:05:12;5.4;;;3.6;;
26824;SDS011;14402;48.178;11.566;2024-02-16T03:05:42;5.4;;;3.6;;
26824;SDS011;14402;48.178;11.566;2024-02-16T03:06:12;5.4;;;3.6;;
26824;SDS011;14402;48.178;11.566;2024-02-16T03:06:42;5.4;;;3.5;;
26824;SDS011;14402;48.178;11.566;2024-02-16T03:07:12;5.5;;;3.4;;
26824;SDS011;14402;48.178;11.566;2024-02-16T03:07:42;5.5;;;3.4;;
26824;SDS011;14402;48.178;11.566;2024-02-16T03:08:12;5.5;;;3.4;;
26824;SDS011;14402;48.178;11.566;2024-02-16T03:08:42;5.4;;;3.6;;
26824;SDS011;14402;48.178;11.566;2024-02-16T03:09:12;5.4;;;3.8;;
26824;SDS011;14402;48.178;11.566;2024-02-16T03:09:42;5.4;;;3.8;;
26824;SDS011;14402;48.178;11.566;2024-02-16T03:10:12;5.4;;;3.8;;
26824;SDS011;14402;48.178;11.566;2024-02-16T03:10:42;5.2;;;3.6;;
26824;SDS011;14402;48.178;11.566;2024-02-16T03:11:12;5.0;;;3.4;;
26824;SDS011;14402;48.178;11.566;2024-02-16T03:11:42;5.0;;;3.4;;
26824;SDS011;14402;48.178;11.566;2024-02-16T03:12:13;5.0;;;3.4;;
26824;SDS011;14402;48.178;11.566;2024-02-16T03:12:43;4.4;;;3.3;;
26824;SDS011;14402;48.178;11.566;2024-02-16T03:13:13;3.9;;;3.3;;
26824;SDS011;14402;48.178;11.566;2024-02-16T03:13:43;3.9;;;3.3;;
26824;SDS011;14402;48.178;11.566;2024-02-16T03:14:13;3.9;;;3.3;;
26824;SDS011;14402;48.178;11.566;2024-02-16T03:14:43;4.7;;;3.6;;
26824;SDS011;14402;48.178;11.566;2024-02-16T03:15:13;5.5;;;3.9;;
26824;SDS011;14402;48.178;11.566;2024-02-16T03:15:43;5.5;;;3.9;;
26824;SDS011;14402;48.178;11.566;2024-02-16T03:16:13;5.5;;;3.9;;
26824;SDS011;14402;48.178;11.566;2024-02-16T03:16:43;4.9;;;3.7;;
26824;SDS011;14402;48.178;11.566;2024-02-16T03:17:14;4.3;;;3.5;;
26824;SDS011;14402;48.178;11.566;2024-02-16T03:17:43;4.3;;;3.5;;
26824;SDS011;14402;48.178;11.566;2024-02-16T03:18:13;4.3;;;3.5;;
26824;SDS011;14402;48.178;11.566;2024-02-16T03:18:43;5.6;;;3.5;;
26824;SDS011;14402;48.178;11.566;2024-02-16T03:19:13;6.9;;;3.6;;
26824;SDS011;14402;48.178;11.566;2024-02-16T03:19:43;6.9;;;3.6;;
26824;SDS011;14402;48.178;11.566;2024-02-16T03:20:13;6.9;;;3.6;;
26824;SDS011;14402;48.178;11.566;2024-02-16T03:20:43;6.6;;;3.8;;